createdAt,value
2018-07-04T00:02:06.836Z,81.00
2018-07-04T00:04:58.827Z,81.10
2018-07-04T00:07:50.688Z,81.00
2018-07-04T00:10:43.588Z,81.10
2018-07-04T00:13:35.634Z,81.30
2018-07-04T00:16:27.258Z,81.40
2018-07-04T00:19:18.700Z,81.40
2018-07-04T00:22:10.978Z,81.30
2018-07-04T00:25:02.660Z,81.30
2018-07-04T00:27:53.951Z,81.30
2018-07-04T00:30:45.566Z,81.40
2018-07-04T00:33:37.004Z,81.60
2018-07-04T00:36:28.865Z,81.60
2018-07-04T00:39:20.472Z,81.60
2018-07-04T00:42:12.057Z,81.60
2018-07-04T00:45:03.871Z,81.80
2018-07-04T00:47:55.606Z,81.80
2018-07-04T00:50:47.600Z,82.00
2018-07-04T00:53:39.511Z,82.10
2018-07-04T00:59:17.220Z,82.30
2018-07-04T01:02:08.847Z,82.50
2018-07-04T01:05:00.714Z,82.60
2018-07-04T01:07:52.440Z,83.20
2018-07-04T01:10:44.179Z,82.60
2018-07-04T01:13:35.828Z,82.50
2018-07-04T01:16:27.558Z,82.50
2018-07-04T01:19:19.452Z,82.50
2018-07-04T01:22:12.185Z,82.50
2018-07-04T01:25:04.702Z,82.80
2018-07-04T01:27:56.932Z,82.90
2018-07-04T01:30:48.645Z,83.20
2018-07-04T01:33:40.717Z,83.00
2018-07-04T01:36:32.509Z,83.00
2018-07-04T01:39:24.795Z,83.10
2018-07-04T01:42:16.538Z,83.10
2018-07-04T01:45:08.252Z,83.20
2018-07-04T01:48:00.185Z,83.20
2018-07-04T01:50:51.704Z,83.40
2018-07-04T01:53:43.612Z,83.40
2018-07-04T01:56:35.398Z,83.30
2018-07-04T01:59:27.094Z,83.40
2018-07-04T02:02:18.958Z,83.50
2018-07-04T02:05:10.577Z,83.70
2018-07-04T02:08:02.275Z,83.60
2018-07-04T02:10:54.233Z,83.60
2018-07-04T02:13:46.000Z,83.80
2018-07-04T02:16:37.822Z,84.50
2018-07-04T02:19:29.666Z,83.90
2018-07-04T02:22:21.665Z,84.00
2018-07-04T02:25:13.283Z,84.10
2018-07-04T02:28:05.310Z,84.10
2018-07-04T02:30:56.808Z,84.10
2018-07-04T02:33:48.484Z,84.20
2018-07-04T02:36:40.076Z,84.20
2018-07-04T02:39:31.811Z,84.30
2018-07-04T02:42:23.675Z,84.30
2018-07-04T02:45:15.424Z,84.30
2018-07-04T02:48:07.287Z,84.30
2018-07-04T02:50:59.472Z,84.70
2018-07-04T02:53:51.174Z,84.40
2018-07-04T02:56:42.883Z,84.50
2018-07-04T02:59:34.726Z,84.60
2018-07-04T03:02:26.553Z,84.70
2018-07-04T03:05:18.174Z,85.20
2018-07-04T03:08:10.127Z,84.90
2018-07-04T03:11:01.617Z,85.00
2018-07-04T03:13:53.308Z,85.00
2018-07-04T03:16:44.949Z,85.10
2018-07-04T03:19:36.811Z,85.30
2018-07-04T03:22:29.080Z,85.20
2018-07-04T03:25:22.112Z,85.20
2018-07-04T03:28:14.308Z,85.20
2018-07-04T03:31:06.556Z,85.10
2018-07-04T03:33:57.862Z,85.20
2018-07-04T03:36:49.645Z,85.00
2018-07-04T03:39:41.552Z,85.60
2018-07-04T03:42:33.334Z,84.90
2018-07-04T03:45:25.455Z,84.90
2018-07-04T03:48:16.867Z,84.80
2018-07-04T03:51:08.818Z,85.40
2018-07-04T03:54:00.160Z,84.80
2018-07-04T03:56:52.062Z,84.80
2018-07-04T03:59:43.883Z,84.80
2018-07-04T04:02:35.590Z,84.90
2018-07-04T04:05:27.346Z,84.90
2018-07-04T04:08:19.154Z,85.10
2018-07-04T04:11:10.891Z,85.00
2018-07-04T04:14:02.890Z,84.80
2018-07-04T04:16:54.641Z,85.00
2018-07-04T04:19:46.571Z,85.00
2018-07-04T04:22:37.987Z,85.10
2018-07-04T04:25:30.112Z,85.00
2018-07-04T04:28:21.747Z,84.80
2018-07-04T04:31:13.506Z,84.80
2018-07-04T04:34:05.262Z,84.60
2018-07-04T04:36:57.205Z,84.60
2018-07-04T04:39:48.883Z,84.50
2018-07-04T04:42:40.547Z,84.30
2018-07-04T04:45:32.222Z,84.10
2018-07-04T04:48:24.453Z,83.80
2018-07-04T04:51:16.021Z,83.60
2018-07-04T04:54:07.717Z,83.50
2018-07-04T04:56:59.487Z,83.30
2018-07-04T04:59:51.409Z,83.40
2018-07-04T05:02:43.375Z,84.10
2018-07-04T05:05:35.978Z,83.80
2018-07-04T05:08:27.963Z,83.10
2018-07-04T05:11:19.733Z,82.60
2018-07-04T05:14:11.666Z,81.70
2018-07-04T05:17:03.126Z,81.30
2018-07-04T05:19:55.106Z,79.20
2018-07-04T05:22:46.755Z,78.80
2018-07-04T05:25:38.683Z,79.20
2018-07-04T05:28:30.258Z,79.20
2018-07-04T05:31:21.837Z,78.30
2018-07-04T05:34:13.752Z,77.30
2018-07-04T05:37:05.646Z,78.20
2018-07-04T05:39:57.203Z,77.30
2018-07-04T05:42:48.956Z,75.90
2018-07-04T05:45:40.465Z,73.00
2018-07-04T05:48:32.339Z,71.90
2018-07-04T05:51:24.175Z,71.40
2018-07-04T05:54:17.158Z,72.00
2018-07-04T05:57:08.891Z,72.20
2018-07-04T06:00:00.785Z,71.70
2018-07-04T06:02:52.364Z,69.50
2018-07-04T06:05:44.247Z,69.40
2018-07-04T06:08:35.740Z,68.60
2018-07-04T06:11:27.656Z,66.30
2018-07-04T06:14:19.382Z,66.80
2018-07-04T06:17:10.996Z,65.90
2018-07-04T06:20:02.913Z,65.30
2018-07-04T06:22:54.740Z,63.60
2018-07-04T06:25:46.437Z,64.20
2018-07-04T06:28:38.165Z,64.20
2018-07-04T06:31:30.006Z,64.10
2018-07-04T06:34:21.880Z,64.00
2018-07-04T06:37:13.813Z,63.90
2018-07-04T06:39:46.681Z,63.90
2018-07-04T06:42:20.125Z,62.70
2018-07-04T06:44:53.741Z,63.80
2018-07-04T06:47:26.946Z,64.70
2018-07-04T06:50:00.480Z,64.00
2018-07-04T06:52:33.966Z,64.30
2018-07-04T06:55:07.756Z,63.00
2018-07-04T06:57:40.964Z,62.80
2018-07-04T07:00:13.944Z,62.40
2018-07-04T07:02:53.362Z,62.10
2018-07-04T07:05:45.422Z,62.40
2018-07-04T07:08:37.396Z,63.30
2018-07-04T07:11:29.114Z,64.10
2018-07-04T07:14:20.811Z,62.70
2018-07-04T07:17:12.462Z,61.90
2018-07-04T07:20:04.268Z,62.40
2018-07-04T07:22:55.858Z,62.10
2018-07-04T07:25:47.450Z,61.40
2018-07-04T07:28:39.037Z,59.40
2018-07-04T07:31:30.719Z,59.10
2018-07-04T07:34:22.550Z,59.50
2018-07-04T07:37:14.456Z,58.30
2018-07-04T07:40:06.551Z,57.20
2018-07-04T07:42:58.315Z,56.50
2018-07-04T07:45:49.802Z,55.30
2018-07-04T07:48:41.716Z,52.50
2018-07-04T07:51:33.875Z,52.90
2018-07-04T07:54:25.638Z,51.20
2018-07-04T07:57:17.460Z,49.10
2018-07-04T08:00:09.044Z,50.00
2018-07-04T08:03:00.695Z,49.50
2018-07-04T08:05:52.120Z,50.20
2018-07-04T08:08:43.745Z,50.60
2018-07-04T08:11:35.685Z,51.40
2018-07-04T08:14:27.706Z,52.80
2018-07-04T08:17:19.316Z,53.90
2018-07-04T08:20:11.245Z,53.90
2018-07-04T08:23:03.031Z,53.00
2018-07-04T08:25:54.786Z,53.90
2018-07-04T08:28:46.848Z,53.70
2018-07-04T08:31:38.493Z,53.40
2018-07-04T08:34:30.474Z,53.70
2018-07-04T08:37:22.296Z,54.80
2018-07-04T08:40:14.983Z,54.90
2018-07-04T08:43:06.970Z,53.80
2018-07-04T08:45:58.713Z,53.50
2018-07-04T08:48:50.438Z,53.80
2018-07-04T08:51:42.180Z,51.90
2018-07-04T08:54:33.897Z,51.50
2018-07-04T08:57:25.419Z,50.00
2018-07-04T09:00:17.354Z,49.10
2018-07-04T09:03:10.125Z,49.00
2018-07-04T09:06:01.883Z,47.20
2018-07-04T09:08:53.653Z,47.00
2018-07-04T09:11:45.381Z,46.20
2018-07-04T09:14:36.987Z,46.10
2018-07-04T09:17:28.830Z,45.10
2018-07-04T09:20:20.766Z,43.70
2018-07-04T09:23:12.754Z,44.10
2018-07-04T09:26:04.448Z,43.30
2018-07-04T09:28:56.007Z,43.00
2018-07-04T09:31:47.845Z,41.90
2018-07-04T09:34:39.775Z,42.90
2018-07-04T09:37:31.731Z,44.40
2018-07-04T09:40:23.145Z,44.50
2018-07-04T09:43:14.975Z,45.30
2018-07-04T09:46:06.304Z,46.40
2018-07-04T09:51:43.982Z,45.70
2018-07-04T09:54:35.750Z,46.30
2018-07-04T09:57:27.237Z,46.40
2018-07-04T10:00:23.545Z,45.70
2018-07-04T10:03:15.746Z,47.10
2018-07-04T10:06:07.273Z,46.10
2018-07-04T10:08:58.953Z,47.30
2018-07-04T10:11:51.094Z,47.10
2018-07-04T10:14:42.652Z,46.10
2018-07-04T10:17:34.421Z,46.00
2018-07-04T10:20:26.223Z,47.30
2018-07-04T10:23:17.617Z,46.50
2018-07-04T10:26:09.286Z,47.70
2018-07-04T10:29:00.798Z,46.70
2018-07-04T10:31:52.589Z,46.00
2018-07-04T10:34:44.404Z,46.40
2018-07-04T10:37:36.196Z,48.00
2018-07-04T10:40:28.176Z,48.00
2018-07-04T10:43:19.994Z,49.50
2018-07-04T10:48:57.575Z,47.40
2018-07-04T10:51:49.256Z,48.30
2018-07-04T10:54:41.453Z,49.70
2018-07-04T10:57:33.223Z,48.80
2018-07-04T11:00:25.275Z,49.00
2018-07-04T11:03:17.542Z,49.60
2018-07-04T11:06:09.447Z,49.40
2018-07-04T11:09:01.229Z,51.40
2018-07-04T11:11:52.954Z,51.60
2018-07-04T11:14:44.710Z,51.50
2018-07-04T11:17:36.422Z,51.80
2018-07-04T11:20:28.002Z,50.80
2018-07-04T11:23:19.458Z,52.10
2018-07-04T11:26:11.296Z,51.20
2018-07-04T11:29:03.086Z,50.60
2018-07-04T11:31:54.896Z,51.90
2018-07-04T11:34:46.547Z,52.60
2018-07-04T11:37:38.334Z,51.70
2018-07-04T11:40:29.947Z,50.50
2018-07-04T11:43:21.615Z,50.40
2018-07-04T11:45:57.179Z,49.80
2018-07-04T11:48:30.294Z,49.30
2018-07-04T11:51:03.751Z,50.10
2018-07-04T11:53:36.679Z,50.60
2018-07-04T11:56:09.993Z,50.90
2018-07-04T11:58:43.523Z,49.50
2018-07-04T12:01:17.012Z,48.10
2018-07-04T12:04:09.704Z,48.10
2018-07-04T12:07:04.487Z,48.50
2018-07-04T12:09:38.724Z,48.10
2018-07-04T12:12:12.051Z,48.00
2018-07-04T12:14:45.718Z,46.80
2018-07-04T12:17:18.942Z,46.20
2018-07-04T12:19:52.638Z,47.80
2018-07-04T12:22:25.833Z,46.00
2018-07-04T12:24:59.632Z,46.00
2018-07-04T12:27:32.810Z,46.10
2018-07-04T12:30:06.298Z,46.70
2018-07-04T12:32:39.730Z,48.00
2018-07-04T12:35:13.331Z,49.90
2018-07-04T12:37:46.569Z,49.20
2018-07-04T12:40:20.353Z,51.10
2018-07-04T12:42:54.001Z,51.60
2018-07-04T12:45:27.357Z,52.20
2018-07-04T12:48:00.486Z,52.70
2018-07-04T12:50:33.971Z,54.10
2018-07-04T12:53:07.245Z,55.10
2018-07-04T12:55:59.678Z,54.10
2018-07-04T12:58:52.334Z,53.50
2018-07-04T13:01:44.122Z,54.20
2018-07-04T13:04:35.539Z,54.40
2018-07-04T13:07:27.310Z,56.40
2018-07-04T13:10:19.807Z,54.60
2018-07-04T13:13:11.470Z,54.20
2018-07-04T13:16:03.531Z,55.00
2018-07-04T13:18:55.035Z,56.40
2018-07-04T13:21:46.522Z,54.20
2018-07-04T13:24:38.584Z,53.80
2018-07-04T13:27:30.219Z,52.60
2018-07-04T13:30:22.030Z,53.90
2018-07-04T13:33:13.987Z,54.70
2018-07-04T13:36:05.710Z,53.20
2018-07-04T13:38:57.243Z,53.10
2018-07-04T13:44:35.394Z,53.50
2018-07-04T13:47:27.249Z,54.60
2018-07-04T13:50:19.389Z,55.30
2018-07-04T13:53:10.811Z,56.20
2018-07-04T13:56:02.571Z,56.60
2018-07-04T13:58:54.170Z,56.80
2018-07-04T14:01:45.841Z,56.20
2018-07-04T14:04:37.197Z,54.60
2018-07-04T14:07:29.156Z,56.20
2018-07-04T14:10:21.220Z,54.50
2018-07-04T14:13:14.034Z,52.40
2018-07-04T14:16:06.369Z,53.00
2018-07-04T14:18:58.267Z,53.30
2018-07-04T14:21:49.853Z,53.30
2018-07-04T14:24:41.513Z,52.60
2018-07-04T14:27:33.494Z,54.00
2018-07-04T14:30:24.891Z,52.40
2018-07-04T14:33:16.519Z,54.10
2018-07-04T14:36:07.964Z,52.00
2018-07-04T14:38:59.509Z,53.50
2018-07-04T14:41:51.104Z,54.70
2018-07-04T14:44:42.901Z,53.60
2018-07-04T14:47:34.575Z,53.10
2018-07-04T14:50:26.407Z,52.90
2018-07-04T14:53:17.595Z,53.80
2018-07-04T14:56:09.480Z,53.10
2018-07-04T14:59:01.183Z,53.70
2018-07-04T15:01:53.120Z,54.40
2018-07-04T15:04:44.728Z,54.70
2018-07-04T15:07:36.333Z,53.70
2018-07-04T15:10:28.087Z,53.90
2018-07-04T15:13:20.412Z,54.60
2018-07-04T15:18:58.708Z,55.20
2018-07-04T15:21:50.179Z,55.80
2018-07-04T15:24:42.003Z,56.20
2018-07-04T15:27:34.150Z,54.30
2018-07-04T15:30:26.344Z,55.70
2018-07-04T15:33:18.300Z,56.40
2018-07-04T15:36:10.139Z,57.40
2018-07-04T15:39:01.759Z,57.50
2018-07-04T15:41:53.486Z,57.60
2018-07-04T15:44:45.339Z,57.70
2018-07-04T15:47:37.153Z,58.10
2018-07-04T15:50:29.494Z,56.40
2018-07-04T15:53:21.191Z,56.20
2018-07-04T15:56:12.930Z,57.20
2018-07-04T15:59:04.726Z,56.30
2018-07-04T16:01:56.527Z,56.10
2018-07-04T16:04:48.252Z,54.10
2018-07-04T16:10:26.680Z,53.80
2018-07-04T16:13:18.823Z,53.10
2018-07-04T16:16:10.279Z,53.80
2018-07-04T16:19:02.033Z,54.20
2018-07-04T16:21:53.940Z,54.70
2018-07-04T16:24:45.509Z,54.00
2018-07-04T16:27:37.766Z,54.00
2018-07-04T16:30:29.837Z,55.10
2018-07-04T16:33:21.976Z,55.10
2018-07-04T16:36:13.507Z,53.90
2018-07-04T16:39:05.613Z,54.20
2018-07-04T16:41:57.015Z,55.40
2018-07-04T16:44:48.978Z,55.10
2018-07-04T16:47:40.759Z,53.80
2018-07-04T16:50:32.366Z,53.60
2018-07-04T16:53:24.051Z,54.20
2018-07-04T16:56:15.749Z,55.50
2018-07-04T16:59:07.861Z,55.10
2018-07-04T17:01:59.608Z,55.90
2018-07-04T17:04:51.214Z,55.80
2018-07-04T17:07:42.984Z,56.00
2018-07-04T17:10:34.819Z,56.00
2018-07-04T17:13:26.666Z,56.30
2018-07-04T17:16:18.491Z,56.70
2018-07-04T17:19:09.973Z,56.50
2018-07-04T17:22:01.423Z,56.40
2018-07-04T17:24:53.158Z,56.80
2018-07-04T17:27:44.781Z,56.80
2018-07-04T17:30:36.559Z,55.60
2018-07-04T17:33:28.202Z,56.30
2018-07-04T17:36:19.868Z,58.00
2018-07-04T17:39:11.689Z,57.10
2018-07-04T17:44:48.922Z,58.00
2018-07-04T17:47:40.625Z,57.90
2018-07-04T17:50:32.445Z,57.90
2018-07-04T17:53:24.254Z,58.40
2018-07-04T17:56:15.920Z,58.20
2018-07-04T17:59:07.622Z,59.10
2018-07-04T18:01:59.290Z,58.80
2018-07-04T18:04:51.220Z,58.00
2018-07-04T18:07:42.737Z,57.70
2018-07-04T18:10:34.982Z,57.40
2018-07-04T18:13:27.127Z,57.60
2018-07-04T18:16:19.450Z,57.50
2018-07-04T18:19:12.104Z,58.30
2018-07-04T18:22:03.747Z,58.70
2018-07-04T18:24:55.670Z,59.00
2018-07-04T18:27:47.464Z,59.50
2018-07-04T18:30:39.263Z,59.60
2018-07-04T18:33:31.523Z,59.30
2018-07-04T18:36:22.846Z,59.20
2018-07-04T18:39:14.899Z,59.50
2018-07-04T18:42:06.591Z,59.60
2018-07-04T18:44:58.144Z,59.90
2018-07-04T18:47:49.996Z,59.50
2018-07-04T18:50:41.824Z,60.10
2018-07-04T18:53:33.709Z,60.20
2018-07-04T18:56:25.101Z,60.80
2018-07-04T18:59:16.993Z,61.20
2018-07-04T19:02:08.452Z,61.40
2018-07-04T19:05:00.336Z,61.50
2018-07-04T19:07:52.103Z,62.00
2018-07-04T19:10:44.081Z,62.70
2018-07-04T19:13:35.981Z,62.70
2018-07-04T19:16:27.899Z,63.10
2018-07-04T19:19:19.411Z,63.00
2018-07-04T19:22:11.186Z,63.90
2018-07-04T19:25:03.019Z,64.40
2018-07-04T19:27:55.013Z,64.90
2018-07-04T19:30:46.355Z,64.50
2018-07-04T19:33:38.073Z,65.20
2018-07-04T19:36:29.592Z,65.60
2018-07-04T19:39:21.279Z,65.90
2018-07-04T19:42:13.368Z,66.40
2018-07-04T19:45:04.454Z,66.70
2018-07-04T19:47:56.405Z,67.10
2018-07-04T19:50:48.084Z,67.70
2018-07-04T19:53:39.849Z,68.00
2018-07-04T19:56:31.580Z,68.30
2018-07-04T19:59:23.377Z,68.50
2018-07-04T20:02:14.977Z,68.80
2018-07-04T20:07:52.439Z,69.50
2018-07-04T20:10:44.148Z,69.70
2018-07-04T20:13:35.886Z,70.00
2018-07-04T20:16:27.462Z,70.10
2018-07-04T20:19:19.039Z,70.40
2018-07-04T20:22:10.693Z,70.60
2018-07-04T20:25:02.349Z,70.90
2018-07-04T20:27:54.419Z,71.10
2018-07-04T20:30:45.951Z,71.40
2018-07-04T20:33:38.570Z,71.70
2018-07-04T20:36:30.222Z,72.00
2018-07-04T20:39:22.118Z,72.20
2018-07-04T20:42:13.996Z,72.80
2018-07-04T20:45:05.686Z,72.70
2018-07-04T20:47:57.596Z,72.70
2018-07-04T20:50:49.937Z,72.60
2018-07-04T20:53:42.431Z,73.10
2018-07-04T20:56:34.637Z,73.30
2018-07-04T20:59:26.469Z,73.60
2018-07-04T21:02:18.441Z,73.90
2018-07-04T21:05:10.287Z,73.90
2018-07-04T21:08:01.562Z,74.20
2018-07-04T21:10:53.595Z,74.30
2018-07-04T21:13:45.798Z,74.20
2018-07-04T21:16:37.527Z,74.20
2018-07-04T21:19:29.103Z,74.20
2018-07-04T21:22:21.003Z,74.50
2018-07-04T21:25:12.448Z,74.70
2018-07-04T21:28:04.145Z,74.90
2018-07-04T21:30:55.873Z,75.00
2018-07-04T21:33:47.737Z,75.30
2018-07-04T21:36:39.540Z,75.20
2018-07-04T21:39:31.444Z,75.20
2018-07-04T21:42:23.451Z,75.20
2018-07-04T21:45:15.071Z,75.50
2018-07-04T21:48:06.986Z,75.70
2018-07-04T21:50:58.739Z,75.80
2018-07-04T21:53:50.396Z,76.00
2018-07-04T21:56:42.093Z,76.20
2018-07-04T21:59:33.625Z,76.20
2018-07-04T22:02:25.575Z,76.50
2018-07-04T22:05:17.426Z,76.60
2018-07-04T22:08:09.028Z,76.80
2018-07-04T22:11:00.639Z,76.90
2018-07-04T22:13:52.677Z,77.00
2018-07-04T22:16:44.389Z,77.00
2018-07-04T22:19:35.807Z,77.20
2018-07-04T22:22:27.374Z,77.50
2018-07-04T22:25:19.047Z,77.50
2018-07-04T22:28:10.889Z,77.40
2018-07-04T22:31:02.269Z,77.40
2018-07-04T22:33:53.822Z,77.40
2018-07-04T22:36:45.637Z,77.70
2018-07-04T22:39:37.253Z,77.80
2018-07-04T22:42:29.277Z,77.50
2018-07-04T22:45:20.987Z,77.50
2018-07-04T22:48:12.688Z,77.50
2018-07-04T22:51:04.630Z,77.50
2018-07-04T22:53:57.035Z,77.40
2018-07-04T22:56:48.809Z,77.50
2018-07-04T22:59:40.624Z,78.20
2018-07-04T23:02:32.777Z,77.30
2018-07-04T23:05:24.241Z,77.50
2018-07-04T23:08:15.861Z,77.40
2018-07-04T23:11:07.686Z,77.40
2018-07-04T23:13:59.295Z,77.50
2018-07-04T23:16:51.285Z,77.50
2018-07-04T23:19:43.239Z,77.40
2018-07-04T23:22:35.000Z,77.40
2018-07-04T23:25:27.009Z,78.40
2018-07-04T23:28:18.831Z,77.60
2018-07-04T23:31:10.622Z,77.80
2018-07-04T23:34:02.297Z,77.80
2018-07-04T23:36:54.103Z,77.90
2018-07-04T23:39:45.683Z,77.80
2018-07-04T23:42:37.601Z,78.00
2018-07-04T23:45:29.183Z,78.20
2018-07-04T23:48:21.085Z,78.40
2018-07-04T23:51:12.653Z,78.30
2018-07-04T23:54:04.389Z,79.00
2018-07-04T23:56:56.208Z,78.20
2018-07-04T23:59:47.939Z,78.20
